Lafayette, Alabama
Current Conditions -  °F | °C
As of 6:15 AM on Sunday 23 Nov 2014 (Local Time) from KAUO Reporting Station
Overcast Overcast  
Wind Chill: 55°   Ceiling: 400
Heat Index: 55°   Visibility: 7mi
Dew Point: 54°   Wind: 9mph
Humidity: 94%   Direction: 110°ESE
Pressure: 29.95"   Gusts: 18mph
Location:  32.9°N, 85.4°W
Report Text: KAUO 231215Z AUTO 11008G16KT 7SM BKN004 OVC027 13/12 A2995 RMK AO1 P0001
Loading
Personal Weather Stations






























Interactive Weather Map New forecast layout! Learn more

10-Day Weather Forecast

Advertisements
Track Severe Weather on mobile